CheckWX is a tool to help pilots better visualize weather data.  It is not intended as a substitute for an official pre-flight weather briefing.

10:26:48 UTC

KCQM METAR
Cook Municipal Airport
Cook, Minnesota, USA
Current

11 mins ago

KCQM 311016Z AUTO 00000KT 10SM CLR 05/M01 A3026 RMK AO2
Observed
May-31 @ 10:16 UTC
Visibility
Flight Rules
VFR
Cloud Levels
  • Clear skies
Temperature
C / 41°F
Dewpoint
-1°C / 30°F
Humidity
66%
Altimeter
30.26" Hg
Pressure
1024.72 hPa
Previous

31 mins ago

KCQM 310956Z AUTO 21003KT 10SM CLR 06/M01 A3026 RMK AO2
Observed
May-31 @ 09:56 UTC
Wind
  • 210° at 3 KTS
Visibility
Flight Rules
VFR
Cloud Levels
  • Clear skies
Temperature
C / 43°F
Dewpoint
-1°C / 30°F
Humidity
61%
Altimeter
30.26" Hg
Pressure
1024.72 hPa
Previous

52 mins ago

KCQM 310935Z AUTO 00000KT 10SM CLR 06/M01 A3026 RMK AO2
Observed
May-31 @ 09:35 UTC
Visibility
Flight Rules
VFR
Cloud Levels
  • Clear skies
Temperature
C / 43°F
Dewpoint
-1°C / 30°F
Humidity
61%
Altimeter
30.26" Hg
Pressure
1024.72 hPa